createdAt,value
2022-08-17T05:11:10.305Z,23.05
2022-08-17T05:13:39.835Z,22.74
2022-08-17T05:16:09.826Z,22.80
2022-08-17T05:18:39.958Z,22.99
2022-08-17T05:21:09.965Z,23.22
2022-08-17T05:23:42.712Z,23.39
2022-08-17T05:26:22.003Z,23.42
2022-08-17T05:28:59.641Z,23.56
2022-08-17T05:31:30.530Z,23.61
2022-08-17T05:34:00.142Z,23.64
2022-08-17T05:36:43.331Z,23.63
2022-08-17T05:39:16.668Z,23.63
2022-08-17T06:28:35.848Z,24.05
2022-08-17T06:31:10.088Z,23.93
2022-08-17T06:33:40.483Z,23.71
2022-08-17T06:36:17.580Z,23.61
2022-08-17T06:38:53.352Z,23.89
2022-08-17T06:41:27.761Z,24.10
2022-08-17T06:44:03.615Z,24.23
2022-08-17T06:46:38.532Z,24.06
2022-08-17T06:49:18.426Z,24.19
2022-08-17T06:51:51.622Z,24.27
2022-08-17T06:54:23.517Z,24.36
2022-08-17T06:56:57.410Z,24.41
2022-08-17T06:59:54.878Z,24.49
2022-08-17T07:02:29.353Z,24.53
2022-08-17T07:05:15.701Z,24.56
2022-08-17T07:08:01.513Z,24.51
2022-08-17T07:10:31.618Z,24.42
2022-08-17T07:13:16.677Z,24.43
2022-08-17T07:15:46.702Z,24.59
2022-08-17T07:18:18.930Z,24.64
2022-08-17T07:20:49.925Z,24.66
2022-08-17T07:23:21.156Z,24.59
2022-08-17T07:25:50.704Z,24.32
2022-08-17T07:28:23.419Z,24.41
2022-08-17T07:30:55.104Z,24.23
2022-08-17T07:33:28.932Z,24.30
2022-08-17T07:35:59.434Z,24.21
2022-08-17T07:38:30.201Z,24.28
2022-08-17T07:41:05.157Z,24.39
2022-08-17T07:43:35.147Z,24.49
2022-08-17T07:46:29.069Z,24.63
2022-08-17T07:49:18.723Z,24.78
2022-08-17T07:51:59.959Z,24.70
2022-08-17T07:54:44.079Z,24.69
2022-08-17T07:57:33.527Z,25.03
2022-08-17T08:00:22.261Z,25.13
2022-08-17T08:03:07.338Z,24.99
2022-08-17T08:05:49.944Z,25.19
2022-08-17T08:08:35.640Z,25.23
2022-08-17T08:11:08.335Z,25.14
2022-08-17T08:13:42.345Z,24.96
2022-08-17T08:16:27.206Z,24.65
2022-08-17T08:18:58.485Z,24.52
2022-08-17T08:21:38.183Z,24.78
2022-08-17T08:24:31.372Z,25.05
2022-08-17T08:27:13.915Z,25.67
2022-08-17T08:29:46.734Z,25.97
2022-08-17T08:32:19.493Z,26.21
2022-08-17T08:35:01.736Z,26.30
2022-08-17T08:37:43.209Z,25.71
2022-08-17T08:40:30.617Z,25.51
2022-08-17T08:43:05.113Z,25.81
2022-08-17T08:45:38.648Z,26.06
2022-08-17T08:48:46.063Z,26.11
2022-08-17T08:51:09.582Z,25.78
2022-08-17T08:53:45.659Z,25.74
2022-08-17T08:56:18.936Z,25.93
2022-08-17T08:58:50.814Z,26.01
2022-08-17T09:01:31.383Z,26.09
2022-08-17T09:04:23.272Z,26.11
2022-08-17T09:07:00.390Z,26.12
2022-08-17T09:09:39.067Z,26.28
2022-08-17T09:12:11.339Z,25.79
2022-08-17T09:14:46.610Z,25.91
2022-08-17T09:17:18.743Z,25.50
2022-08-17T09:19:50.844Z,25.63
2022-08-17T09:22:31.828Z,26.13
2022-08-17T09:25:06.934Z,26.30
2022-08-17T09:27:38.503Z,25.26
2022-08-17T09:30:10.600Z,24.79
2022-08-17T09:32:42.225Z,24.54
2022-08-17T09:35:15.298Z,24.46
2022-08-17T09:37:50.420Z,24.57
2022-08-17T09:40:26.789Z,24.86
2022-08-17T09:42:58.969Z,24.76
2022-08-17T09:45:33.297Z,24.75
2022-08-17T09:48:05.748Z,24.61
2022-08-17T09:51:03.335Z,25.04
2022-08-17T09:53:31.754Z,24.88
2022-08-17T09:56:11.102Z,24.78
2022-08-17T09:58:47.878Z,25.17
2022-08-17T10:01:23.478Z,25.14
2022-08-17T10:04:20.249Z,25.31
2022-08-17T10:06:55.498Z,25.18
2022-08-17T10:09:42.247Z,25.24
2022-08-17T10:12:20.583Z,25.48
2022-08-17T10:14:59.503Z,25.77
2022-08-17T10:17:40.458Z,25.89
2022-08-17T10:20:15.159Z,26.15
2022-08-17T10:23:02.510Z,26.32
2022-08-17T10:26:00.039Z,26.48
2022-08-17T10:28:38.715Z,26.58
2022-08-17T10:34:04.670Z,26.38
2022-08-17T10:36:40.871Z,25.73
2022-08-17T10:39:14.109Z,25.34
2022-08-17T10:41:44.652Z,25.44
2022-08-17T10:44:38.931Z,25.86
2022-08-17T10:47:12.855Z,25.77
2022-08-17T10:49:48.153Z,26.19
2022-08-17T10:52:48.751Z,26.56
2022-08-17T10:55:19.525Z,27.01
2022-08-17T10:57:49.760Z,27.56
2022-08-17T11:01:09.043Z,27.80
2022-08-17T11:03:55.050Z,28.05
2022-08-17T11:06:28.403Z,28.43
2022-08-17T11:09:18.652Z,28.92
2022-08-17T11:12:08.768Z,28.87
2022-08-17T11:15:02.776Z,29.22
2022-08-17T11:18:01.883Z,29.39
2022-08-17T11:20:58.119Z,29.52
2022-08-17T11:23:37.737Z,29.37
2022-08-17T11:26:08.294Z,28.90
2022-08-17T11:28:52.463Z,28.74
2022-08-17T11:31:38.854Z,29.14
2022-08-17T11:34:17.112Z,29.44
2022-08-17T11:37:30.613Z,30.09
2022-08-17T11:40:07.359Z,29.97
2022-08-17T11:42:47.245Z,30.24
2022-08-17T11:45:33.398Z,30.49
2022-08-17T11:48:28.551Z,30.56
2022-08-17T11:51:13.952Z,30.66
2022-08-17T11:54:32.418Z,29.86
2022-08-17T11:57:03.498Z,29.14
2022-08-17T11:59:58.811Z,29.74
2022-08-17T12:02:48.941Z,29.62
2022-08-17T12:05:35.866Z,29.08
2022-08-17T12:11:55.530Z,28.68
2022-08-17T12:14:26.994Z,28.68
2022-08-17T12:17:11.534Z,28.92
2022-08-17T12:19:41.860Z,29.70
2022-08-17T12:22:15.648Z,30.02
2022-08-17T12:24:54.894Z,30.02
2022-08-17T12:28:04.158Z,30.14
2022-08-17T12:30:21.421Z,30.40
2022-08-17T12:32:51.173Z,30.08
2022-08-17T12:35:25.956Z,29.86
2022-08-17T12:37:57.581Z,29.92
2022-08-17T12:40:29.081Z,29.88
2022-08-17T12:43:03.600Z,30.00
2022-08-17T12:45:39.497Z,30.53
2022-08-17T12:48:11.168Z,30.74
2022-08-17T12:50:42.156Z,30.27
2022-08-17T12:53:13.585Z,30.86
2022-08-17T12:55:44.475Z,30.69
2022-08-17T12:58:25.039Z,30.30
2022-08-17T13:00:58.135Z,30.57
2022-08-17T13:03:36.390Z,30.43
2022-08-17T13:06:07.496Z,30.35
2022-08-17T13:08:39.851Z,30.42
2022-08-17T13:11:11.314Z,30.60
2022-08-17T13:13:44.704Z,30.44
2022-08-17T13:16:18.441Z,30.16
2022-08-17T13:18:49.050Z,30.20
2022-08-17T13:21:30.669Z,30.32
2022-08-17T13:24:01.224Z,30.14
2022-08-17T13:26:35.557Z,30.02
2022-08-17T13:29:08.673Z,29.90
2022-08-17T13:31:52.968Z,29.91
2022-08-17T13:35:11.823Z,29.85
2022-08-17T13:37:30.026Z,30.18
2022-08-17T13:40:07.674Z,30.08
2022-08-17T13:42:51.935Z,30.12
2022-08-17T13:45:43.498Z,30.25
2022-08-17T13:48:19.474Z,30.41
2022-08-17T13:50:50.561Z,30.51
2022-08-17T13:53:21.730Z,30.86
2022-08-17T13:55:53.325Z,30.89
2022-08-17T13:59:04.339Z,31.06
2022-08-17T14:01:38.078Z,31.45
2022-08-17T14:04:08.741Z,30.98
2022-08-17T14:06:52.265Z,30.98
2022-08-17T14:09:25.082Z,31.53
2022-08-17T14:11:54.963Z,31.93
2022-08-17T14:14:25.356Z,32.08
2022-08-17T14:16:57.796Z,32.22
2022-08-17T14:19:27.544Z,32.67
2022-08-17T14:21:58.932Z,32.98
2022-08-17T14:24:31.721Z,33.14
2022-08-17T14:27:01.687Z,33.26
2022-08-17T14:29:32.214Z,32.68
2022-08-17T14:32:05.386Z,32.08
2022-08-17T14:34:35.244Z,32.14
2022-08-17T14:37:04.836Z,31.34
2022-08-17T14:39:34.480Z,31.42
2022-08-17T14:42:04.165Z,31.34
2022-08-17T14:44:33.926Z,31.53
2022-08-17T14:47:06.116Z,32.10
2022-08-17T14:49:35.812Z,32.38
2022-08-17T14:52:05.820Z,32.46
2022-08-17T14:54:35.525Z,32.34
2022-08-17T14:57:23.130Z,32.32
2022-08-17T14:59:55.739Z,32.42
2022-08-17T15:02:30.693Z,32.68
2022-08-17T15:05:03.768Z,32.70
2022-08-17T15:07:33.497Z,32.95
2022-08-17T15:10:03.435Z,33.12
2022-08-17T15:12:34.496Z,33.37
2022-08-17T15:15:05.207Z,33.53
2022-08-17T15:17:55.033Z,33.62
2022-08-17T15:20:26.428Z,33.74
2022-08-17T15:22:57.487Z,33.49
2022-08-17T15:25:27.679Z,32.66
2022-08-17T15:27:57.477Z,32.33
2022-08-17T15:30:27.558Z,32.35
2022-08-17T15:33:00.668Z,32.53
2022-08-17T15:35:31.208Z,32.55
2022-08-17T15:38:04.948Z,32.49
2022-08-17T15:40:40.130Z,32.62
2022-08-17T15:43:10.473Z,31.81
2022-08-17T15:45:40.260Z,31.77
2022-08-17T15:48:14.265Z,31.56
2022-08-17T15:50:45.190Z,31.78
2022-08-17T15:53:14.856Z,31.40
2022-08-17T15:55:44.410Z,30.96
2022-08-17T15:58:14.108Z,30.80
2022-08-17T16:01:14.121Z,31.24
2022-08-17T16:04:01.496Z,31.01
2022-08-17T16:06:30.622Z,30.82
2022-08-17T16:09:00.525Z,30.88
2022-08-17T16:11:30.095Z,30.94
2022-08-17T16:13:59.649Z,30.82
2022-08-17T16:16:31.393Z,30.65
2022-08-17T16:19:03.974Z,30.40
2022-08-17T16:21:42.438Z,30.42
2022-08-17T16:24:13.707Z,30.56
2022-08-17T16:26:44.827Z,30.29
2022-08-17T16:29:14.384Z,30.37
2022-08-17T16:31:44.175Z,30.34
2022-08-17T16:34:18.697Z,30.39
2022-08-17T16:36:54.762Z,30.30
2022-08-17T16:39:25.464Z,30.21
2022-08-17T16:41:55.765Z,30.41
2022-08-17T16:44:26.001Z,30.17
2022-08-17T16:46:57.080Z,30.52
2022-08-17T16:49:35.346Z,30.33
2022-08-17T16:52:09.902Z,30.33
2022-08-17T16:54:43.895Z,30.40
2022-08-17T16:57:13.902Z,30.18
2022-08-17T16:59:47.500Z,30.07
2022-08-17T17:02:17.739Z,30.17
2022-08-17T17:04:53.630Z,30.10
2022-08-17T17:07:33.938Z,30.04
2022-08-17T17:10:06.449Z,30.12
2022-08-17T17:13:00.810Z,30.30
2022-08-17T17:15:31.466Z,30.16
2022-08-17T17:18:07.090Z,30.11
2022-08-17T17:20:41.694Z,30.08
2022-08-17T17:23:14.226Z,29.84
2022-08-17T17:25:47.106Z,29.95
2022-08-17T17:28:24.966Z,29.78
2022-08-17T17:30:58.333Z,29.67
2022-08-17T17:33:35.059Z,29.68
2022-08-17T17:36:10.742Z,29.66
2022-08-17T17:38:42.064Z,29.61
2022-08-17T17:41:25.345Z,29.68
2022-08-17T17:44:01.699Z,29.67
2022-08-17T17:46:33.877Z,29.87
2022-08-17T17:49:03.593Z,30.09
2022-08-17T17:52:06.859Z,29.85
2022-08-17T17:54:35.121Z,29.67
2022-08-17T17:57:06.434Z,29.45
2022-08-17T17:59:43.758Z,29.60
2022-08-17T18:02:40.885Z,29.76
2022-08-17T18:05:14.299Z,29.64
2022-08-17T18:07:49.813Z,29.43
2022-08-17T18:10:30.325Z,29.52
2022-08-17T18:13:02.771Z,29.29
2022-08-17T18:15:34.095Z,29.38
2022-08-17T18:18:26.303Z,29.30
2022-08-17T18:20:58.277Z,29.38
2022-08-17T18:23:30.386Z,29.57
2022-08-17T18:26:01.412Z,29.69
2022-08-17T18:28:32.253Z,29.71
2022-08-17T18:31:14.394Z,29.66
2022-08-17T18:33:45.103Z,29.65
2022-08-17T18:36:14.378Z,29.51
2022-08-17T18:38:46.507Z,29.41
2022-08-17T18:41:23.405Z,29.43
2022-08-17T18:44:02.256Z,29.32
2022-08-17T18:46:35.108Z,29.37
2022-08-17T18:49:06.894Z,29.43
2022-08-17T18:51:41.397Z,29.34
2022-08-17T18:54:22.344Z,29.15
2022-08-17T18:56:56.504Z,29.20
2022-08-17T18:59:34.497Z,29.16
2022-08-17T19:02:32.463Z,29.25
2022-08-17T19:05:11.225Z,29.21
2022-08-17T19:07:41.982Z,29.17
2022-08-17T19:10:22.768Z,29.18
2022-08-17T19:12:55.548Z,29.31
2022-08-17T19:15:33.075Z,29.37
2022-08-17T19:18:05.098Z,29.38
2022-08-17T19:20:37.634Z,29.42
2022-08-17T19:23:13.513Z,29.45
2022-08-17T19:25:47.989Z,29.49
2022-08-17T19:28:22.728Z,29.52
2022-08-17T19:30:53.786Z,29.48
2022-08-17T19:33:23.390Z,29.41
2022-08-17T19:35:57.434Z,29.37
2022-08-17T19:38:32.817Z,29.39
2022-08-17T19:41:08.209Z,29.31
2022-08-17T19:44:08.781Z,29.28
2022-08-17T19:46:49.817Z,29.25
2022-08-17T19:49:32.877Z,29.23
2022-08-17T19:52:12.886Z,29.25
2022-08-17T19:54:52.498Z,29.16
2022-08-17T19:58:13.031Z,29.13
2022-08-17T20:01:52.125Z,28.99
2022-08-17T20:04:32.518Z,28.83
2022-08-17T20:07:17.876Z,28.79
2022-08-17T20:09:55.913Z,28.73
2022-08-17T20:13:13.191Z,28.76
2022-08-17T20:15:43.912Z,28.82
2022-08-17T20:18:15.883Z,28.78
2022-08-17T20:20:49.579Z,28.75
2022-08-17T20:23:32.654Z,28.71
2022-08-17T20:26:19.128Z,28.66
2022-08-17T20:29:09.676Z,28.64
2022-08-17T20:31:49.075Z,28.58
2022-08-17T20:34:37.516Z,28.59
2022-08-17T20:37:09.757Z,28.58
2022-08-17T20:39:41.664Z,28.56
2022-08-17T20:42:14.069Z,28.46
2022-08-17T20:44:46.226Z,28.37
2022-08-17T20:47:21.794Z,28.40
2022-08-17T20:49:55.701Z,28.40
2022-08-17T20:52:50.884Z,28.35
2022-08-17T20:55:51.947Z,28.35
2022-08-17T20:58:50.090Z,28.24
2022-08-17T21:01:38.927Z,28.23
2022-08-17T21:04:33.233Z,28.29
2022-08-17T21:07:29.199Z,28.33
2022-08-17T21:10:12.673Z,28.30
2022-08-17T21:12:43.946Z,28.22
2022-08-17T21:15:25.080Z,28.24
2022-08-17T21:18:03.313Z,28.06
2022-08-17T21:20:35.281Z,28.07
2022-08-17T21:23:40.367Z,28.07
2022-08-17T21:26:25.575Z,28.05
2022-08-17T21:29:29.880Z,27.98
2022-08-17T21:32:23.692Z,27.95
2022-08-17T21:35:31.535Z,27.94
2022-08-17T21:38:15.095Z,27.96
2022-08-17T21:40:47.605Z,27.89
2022-08-17T21:43:23.612Z,27.83
2022-08-17T21:46:02.691Z,27.75
2022-08-17T21:48:33.000Z,27.73
2022-08-17T21:51:10.545Z,27.76
2022-08-17T21:53:42.452Z,27.66
2022-08-17T21:56:13.281Z,27.55
2022-08-17T21:58:48.275Z,27.59
2022-08-17T22:01:26.664Z,27.53
2022-08-17T22:04:04.713Z,27.50
2022-08-17T22:06:39.879Z,27.48
2022-08-17T22:09:18.662Z,27.41
2022-08-17T22:11:57.935Z,27.31
2022-08-17T22:14:52.301Z,27.34
2022-08-17T22:17:22.506Z,27.23
2022-08-17T22:19:54.110Z,27.19
2022-08-17T22:22:32.305Z,27.14
2022-08-17T22:25:03.143Z,27.20
2022-08-17T22:27:51.772Z,27.24
2022-08-17T22:30:34.794Z,27.24
2022-08-17T22:33:05.136Z,27.28
2022-08-17T22:35:42.783Z,27.29
2022-08-17T22:38:44.982Z,27.20
2022-08-17T22:41:34.524Z,27.01
2022-08-17T22:44:10.929Z,27.07
2022-08-17T22:46:42.728Z,27.00
2022-08-17T22:49:12.317Z,26.90
2022-08-17T22:51:41.841Z,26.81
2022-08-17T22:54:33.531Z,26.79
2022-08-17T22:57:18.900Z,26.84
2022-08-17T22:59:50.248Z,26.91
2022-08-17T23:02:25.857Z,26.81
2022-08-17T23:04:57.449Z,26.75
2022-08-17T23:07:27.053Z,26.72
2022-08-17T23:10:00.303Z,26.70
2022-08-17T23:12:29.899Z,26.63
2022-08-17T23:15:00.695Z,26.60
2022-08-17T23:17:36.892Z,26.49
2022-08-17T23:20:08.599Z,26.60
2022-08-17T23:22:51.759Z,26.79
2022-08-17T23:25:29.649Z,26.62
2022-08-17T23:28:01.712Z,26.67
2022-08-17T23:30:31.632Z,26.64
2022-08-17T23:33:02.290Z,26.69
2022-08-17T23:35:39.181Z,26.64
2022-08-17T23:38:10.409Z,26.61
2022-08-17T23:40:42.880Z,26.55
2022-08-17T23:43:24.677Z,26.50
2022-08-17T23:45:56.234Z,26.48
2022-08-17T23:48:35.399Z,26.57
2022-08-17T23:51:09.195Z,26.37
2022-08-17T23:53:39.013Z,26.35
2022-08-17T23:56:11.965Z,26.47
2022-08-17T23:58:44.825Z,26.47
